Atkins, Arkansas
Current Conditions -  °F | °C
As of 1:53 PM on Thursday 18 Dec 2014 (Local Time) from KRUE Reporting Station
Overcast Overcast  
Wind Chill: 40°   Ceiling: 800
Heat Index: 40°   Visibility: 8mi
Dew Point: 36°   Wind: 0mph
Humidity: 86%   Direction: NA
Pressure: 30.17"   Gusts: NA
Location:  35.25°N, 92.94°W
Report Text: KRUE 181953Z AUTO 00000KT 8SM OVC008 04/02 A3017 RMK AO2 SLP217 T00440022
Loading
Personal Weather Stations






























Interactive Weather Map New forecast layout! Learn more

10-Day Weather Forecast

Advertisements
Track Severe Weather on mobile